Terminal Aerodrome Forecast
Issued by NWS Tuscon, AZ

Home | Current Version | Previous Version | Text Only | Print | Product List | Glossary On
Versions: 1 2 3 4 5 6 7 8 9 10 11 12
878
FTUS45 KTWC 091125
TAFTUS
TAF
KTUS 091125Z 0912/1012 VRB06KT P6SM SKC
     FM091600 11012G20KT P6SM SKC
     FM092100 08009KT P6SM SKC
     FM100400 14006KT P6SM SKC=

USA.gov is the U.S. government's official web portal to all federal, state and local government web resources and services.